Time;durP1;ratioP1;P1;durP2;ratioP2;P2;SDS_P1;SDS_P2;PMS_P1;PMS_P2;Temp;Humidity;BMP_temperature;BMP_pressure;BME280_temperature;BME280_humidity;BME280_pressure;Samples;Min_cycle;Max_cycle;Signal;HPM_P1;HPM_P2
2022/10/21 00:00:16;;;;;;;1.47;1.33;;;;;;;12.28;100.00;100015.97;5074116;28;20242;-75
2022/10/21 00:02:42;;;;;;;0.27;0.27;;;;;;;12.25;100.00;100014.72;5074260;28;20178;-74
2022/10/21 00:05:08;;;;;;;2.93;1.83;;;;;;;12.32;100.00;100009.50;5056109;28;20185;-75
2022/10/21 00:07:34;;;;;;;0.33;0.30;;;;;;;12.34;100.00;100014.66;5073922;28;20185;-75
2022/10/21 00:09:59;;;;;;;1.70;1.60;;;;;;;12.35;100.00;100011.59;5074256;28;20638;-75
2022/10/21 00:12:26;;;;;;;2.07;1.97;;;;;;;12.33;100.00;99997.41;5074030;28;20186;-75
2022/10/21 00:14:52;;;;;;;0.67;0.67;;;;;;;12.29;100.00;100012.09;5073800;28;20658;-76
2022/10/21 00:17:17;;;;;;;2.73;2.23;;;;;;;12.26;100.00;100001.81;5073720;28;20171;-75
2022/10/21 00:19:42;;;;;;;0.20;0.20;;;;;;;12.24;100.00;99998.59;5073689;28;20245;-75
2022/10/21 00:22:08;;;;;;;3.60;3.30;;;;;;;12.23;100.00;99997.81;5055731;28;20198;-75
2022/10/21 00:24:33;;;;;;;0.63;0.60;;;;;;;12.24;100.00;99995.88;5073719;28;20174;-74
2022/10/21 00:26:58;;;;;;;3.20;2.43;;;;;;;12.24;100.00;99993.94;5073596;28;20186;-74
2022/10/21 00:29:24;;;;;;;1.80;1.70;;;;;;;12.32;100.00;99989.53;5055590;28;20208;-74
2022/10/21 00:31:53;;;;;;;0.20;0.20;;;;;;;12.29;100.00;99979.22;5073804;28;20178;-73
2022/10/21 00:34:18;;;;;;;0.63;0.63;;;;;;;12.29;100.00;99981.97;5073818;28;20171;-75
2022/10/21 00:36:43;;;;;;;1.80;1.70;;;;;;;12.33;100.00;99971.97;5073824;28;20170;-74
2022/10/21 00:39:09;;;;;;;0.00;0.00;;;;;;;12.30;100.00;99973.44;5073415;28;20178;-74
2022/10/21 00:41:34;;;;;;;7.00;2.80;;;;;;;12.34;100.00;99981.78;5073268;28;20171;-74
2022/10/21 00:44:26;;;;;;;0.20;0.20;;;;;;;12.41;100.00;99977.34;5073273;28;20231;-73
2022/10/21 00:47:00;;;;;;;0.10;0.10;;;;;;;12.38;100.00;99983.50;5069201;28;20198;-73
2022/10/21 00:49:38;;;;;;;0.20;0.20;;;;;;;12.35;100.00;99986.13;5073149;28;20194;-74
2022/10/21 00:52:08;;;;;;;0.23;0.23;;;;;;;12.34;100.00;99982.59;5073289;28;20648;-74
2022/10/21 00:54:34;;;;;;;0.20;0.20;;;;;;;12.32;100.00;99973.91;5073041;28;20507;-74
2022/10/21 00:57:00;;;;;;;0.70;0.70;;;;;;;12.35;100.00;99956.78;5072789;28;20658;-74
2022/10/21 00:59:30;;;;;;;0.00;0.00;;;;;;;12.36;100.00;99952.91;5072054;28;20202;-74
2022/10/21 01:01:55;;;;;;;0.70;0.70;;;;;;;12.32;100.00;99956.66;5072965;28;20239;-74
2022/10/21 01:04:21;;;;;;;0.00;0.00;;;;;;;12.36;100.00;99931.00;5072507;28;20175;-74
2022/10/21 01:06:47;;;;;;;2.57;2.37;;;;;;;12.42;100.00;99948.03;5073015;28;20175;-77
2022/10/21 01:09:13;;;;;;;0.10;0.10;;;;;;;12.49;100.00;99934.59;5038240;28;20206;-74
2022/10/21 01:11:42;;;;;;;0.00;0.00;;;;;;;12.49;100.00;99940.06;5073073;28;20213;-74
2022/10/21 01:14:27;;;;;;;0.00;0.00;;;;;;;12.52;100.00;99940.19;5072810;28;20204;-74
2022/10/21 01:17:01;;;;;;;0.00;0.00;;;;;;;12.46;100.00;99940.75;5072601;28;20633;-74
2022/10/21 01:20:03;;;;;;;0.33;0.33;;;;;;;12.50;100.00;99931.50;5072528;28;20794;-73
2022/10/21 01:22:28;;;;;;;0.37;0.33;;;;;;;12.62;100.00;99935.44;5072851;28;20201;-74
2022/10/21 01:24:59;;;;;;;2.67;2.47;;;;;;;12.73;100.00;99933.84;5072714;28;20275;-74
2022/10/21 01:27:35;;;;;;;2.20;1.30;;;;;;;12.78;100.00;99933.66;5072698;28;20182;-74
2022/10/21 01:30:06;;;;;;;1.33;0.87;;;;;;;12.74;100.00;99930.81;5054447;28;20452;-73
2022/10/21 01:32:38;;;;;;;0.00;0.00;;;;;;;12.77;100.00;99934.81;5072520;28;20170;-75
2022/10/21 01:35:15;;;;;;;1.93;1.83;;;;;;;12.71;100.00;99927.91;5072281;28;20265;-74
2022/10/21 01:38:11;;;;;;;0.00;0.00;;;;;;;12.73;100.00;99923.72;5054223;28;20171;-73
2022/10/21 01:40:48;;;;;;;12.67;3.37;;;;;;;12.70;100.00;99923.56;5072169;28;20259;-74
2022/10/21 01:43:18;;;;;;;2.27;2.17;;;;;;;12.77;100.00;99919.16;5071941;28;20235;-73
2022/10/21 01:45:57;;;;;;;0.00;0.00;;;;;;;12.69;100.00;99908.28;5071932;28;20217;-73
2022/10/21 01:48:30;;;;;;;0.00;0.00;;;;;;;12.64;100.00;99898.34;5071998;28;20182;-73
2022/10/21 01:50:59;;;;;;;0.00;0.00;;;;;;;12.61;100.00;99879.84;5072118;28;20645;-74
2022/10/21 01:53:28;;;;;;;0.00;0.00;;;;;;;12.64;100.00;99864.66;5071720;28;20269;-73
2022/10/21 01:55:56;;;;;;;1.30;1.30;;;;;;;12.74;100.00;99883.41;5071716;28;20249;-74
2022/10/21 01:58:27;;;;;;;0.10;0.10;;;;;;;12.69;100.00;99886.34;5071700;28;20178;-74
2022/10/21 02:00:55;;;;;;;1.93;1.83;;;;;;;12.80;100.00;99903.97;5071629;28;20729;-73
2022/10/21 02:03:26;;;;;;;0.00;0.00;;;;;;;12.70;100.00;99891.47;5071523;28;20533;-74
2022/10/21 02:05:52;;;;;;;1.90;1.80;;;;;;;12.70;100.00;99901.66;5071292;28;20178;-73
2022/10/21 02:08:17;;;;;;;0.73;0.70;;;;;;;12.71;100.00;99884.88;5071529;28;20178;-74
2022/10/21 02:10:48;;;;;;;0.70;0.57;;;;;;;12.73;100.00;99890.84;5053333;28;20189;-74
2022/10/21 02:13:25;;;;;;;1.27;1.17;;;;;;;12.70;100.00;99887.94;5071276;28;20194;-74
2022/10/21 02:15:54;;;;;;;1.40;1.30;;;;;;;12.75;100.00;99872.09;5070699;28;20721;-73
2022/10/21 02:18:24;;;;;;;0.00;0.00;;;;;;;12.70;100.00;99863.28;5071199;28;20787;-74
2022/10/21 02:20:55;;;;;;;1.40;1.30;;;;;;;12.64;100.00;99845.47;5071067;28;20214;-74
2022/10/21 02:23:30;;;;;;;2.60;2.40;;;;;;;12.71;100.00;99840.22;5071106;28;20276;-74
2022/10/21 02:25:55;;;;;;;2.00;1.90;;;;;;;12.76;100.00;99846.28;5070810;28;20256;-74
2022/10/21 02:28:21;;;;;;;2.80;2.43;;;;;;;12.74;100.00;99850.50;5070787;28;20274;-73
2022/10/21 02:31:03;;;;;;;1.60;1.60;;;;;;;12.78;100.00;99845.94;5070780;28;20166;-73
2022/10/21 02:33:46;;;;;;;1.50;1.03;;;;;;;12.76;100.00;99840.00;5070780;28;20179;-74
2022/10/21 02:36:16;;;;;;;0.47;0.47;;;;;;;12.77;100.00;99839.66;5070584;28;20228;-73
2022/10/21 02:38:48;;;;;;;0.53;0.53;;;;;;;12.78;100.00;99821.28;5070814;28;20186;-74
2022/10/21 02:41:18;;;;;;;5.90;2.77;;;;;;;12.90;100.00;99824.03;5070636;28;20271;-73
2022/10/21 02:43:55;;;;;;;0.00;0.00;;;;;;;12.96;100.00;99828.13;5070668;28;20178;-74
2022/10/21 02:46:20;;;;;;;4.73;2.27;;;;;;;13.07;100.00;99820.25;5052530;28;20182;-74
2022/10/21 02:48:47;;;;;;;2.03;1.10;;;;;;;13.16;100.00;99826.41;5068369;28;20535;-74
2022/10/21 02:51:13;;;;;;;3.53;3.23;;;;;;;13.21;100.00;99828.97;5067924;28;20247;-72
2022/10/21 02:53:38;;;;;;;1.23;1.13;;;;;;;13.21;100.00;99828.97;5060608;28;20182;-74
2022/10/21 02:56:04;;;;;;;2.77;2.57;;;;;;;13.20;100.00;99821.09;5070298;28;20269;-73
2022/10/21 02:58:29;;;;;;;2.53;2.33;;;;;;;13.18;100.00;99820.59;5070370;28;20198;-73
2022/10/21 03:00:55;;;;;;;0.00;0.00;;;;;;;13.22;100.00;99814.09;5070417;28;20310;-73
2022/10/21 03:03:21;;;;;;;0.10;0.10;;;;;;;13.23;100.00;99810.22;5070435;28;20226;-74
2022/10/21 03:05:46;;;;;;;3.33;3.03;;;;;;;13.29;100.00;99810.78;5069995;28;20207;-74
2022/10/21 03:08:12;;;;;;;0.00;0.00;;;;;;;13.28;100.00;99804.47;5052260;28;20380;-74
2022/10/21 03:10:37;;;;;;;0.00;0.00;;;;;;;13.24;100.00;99808.28;5070494;28;20175;-74
2022/10/21 03:13:02;;;;;;;0.00;0.00;;;;;;;13.30;100.00;99815.13;5070315;28;20394;-73
2022/10/21 03:15:28;;;;;;;0.00;0.00;;;;;;;13.26;100.00;99804.03;5070330;28;20182;-73
2022/10/21 03:17:53;;;;;;;0.00;0.00;;;;;;;13.24;100.00;99811.81;5069936;28;20182;-73
2022/10/21 03:20:18;;;;;;;0.10;0.10;;;;;;;13.21;100.00;99798.78;5070146;28;20566;-74
2022/10/21 03:22:44;;;;;;;1.00;1.00;;;;;;;13.26;100.00;99800.50;5051760;28;20205;-73
2022/10/21 03:25:10;;;;;;;0.57;0.57;;;;;;;13.26;100.00;99789.53;5070273;28;20630;-74
2022/10/21 03:27:35;;;;;;;6.30;0.93;;;;;;;13.27;100.00;99791.91;5069920;28;20182;-74
2022/10/21 03:30:01;;;;;;;0.00;0.00;;;;;;;13.36;100.00;99792.59;5070173;28;20182;-74
2022/10/21 03:32:27;;;;;;;0.00;0.00;;;;;;;13.41;100.00;99794.28;5070230;28;20175;-73
2022/10/21 03:34:52;;;;;;;0.37;0.37;;;;;;;13.35;100.00;99785.50;5070139;28;20183;-74
2022/10/21 03:37:17;;;;;;;0.90;0.90;;;;;;;13.37;100.00;99779.69;5069867;28;20179;-74
2022/10/21 03:39:42;;;;;;;0.20;0.20;;;;;;;13.37;100.00;99776.94;5070153;28;20206;-74
2022/10/21 03:42:08;;;;;;;0.00;0.00;;;;;;;13.36;100.00;99770.66;5070088;28;20178;-74
2022/10/21 03:44:33;;;;;;;0.13;0.13;;;;;;;13.40;100.00;99771.53;5070097;28;20171;-74
2022/10/21 03:46:58;;;;;;;2.03;1.40;;;;;;;13.46;100.00;99771.31;5069761;28;20879;-74
2022/10/21 03:49:24;;;;;;;0.00;0.00;;;;;;;13.57;100.00;99775.94;5051829;28;20190;-73
2022/10/21 03:51:49;;;;;;;0.60;0.60;;;;;;;13.52;100.00;99781.69;5070230;28;20515;-73
2022/10/21 03:54:16;;;;;;;0.10;0.10;;;;;;;13.47;100.00;99781.16;5052095;28;20579;-74
2022/10/21 03:56:41;;;;;;;1.07;1.00;;;;;;;13.45;100.00;99799.88;5070065;28;20175;-74
2022/10/21 03:59:06;;;;;;;0.00;0.00;;;;;;;13.57;100.00;99797.91;5070316;28;20182;-73
2022/10/21 04:01:32;;;;;;;12.20;2.23;;;;;;;13.61;100.00;99804.31;5070338;28;20179;-74
2022/10/21 04:03:57;;;;;;;0.50;0.50;;;;;;;13.70;100.00;99793.19;5069789;28;20257;-73
2022/10/21 04:06:22;;;;;;;0.20;0.20;;;;;;;13.72;100.00;99790.09;5070300;28;20181;-73
2022/10/21 04:08:47;;;;;;;0.93;0.93;;;;;;;13.69;100.00;99786.09;5070348;28;20183;-73
2022/10/21 04:11:13;;;;;;;4.73;1.07;;;;;;;13.68;100.00;99770.78;5052332;28;20262;-73
2022/10/21 04:13:38;;;;;;;1.57;1.47;;;;;;;13.62;100.00;99761.22;5070471;28;20645;-73
2022/10/21 04:16:06;;;;;;;2.97;2.77;;;;;;;13.61;100.00;99754.91;5069917;28;20257;-77
2022/10/21 04:18:31;;;;;;;0.30;0.20;;;;;;;13.60;100.00;99747.84;5070169;28;20183;-73
2022/10/21 04:20:57;;;;;;;2.67;2.10;;;;;;;13.59;100.00;99743.47;5051929;28;20293;-74
2022/10/21 04:23:22;;;;;;;0.00;0.00;;;;;;;13.55;100.00;99739.81;5070146;28;20205;-73
2022/10/21 04:25:47;;;;;;;0.53;0.53;;;;;;;13.57;100.00;99747.72;5069855;28;20171;-73
2022/10/21 04:28:13;;;;;;;0.00;0.00;;;;;;;13.53;100.00;99760.53;5070149;28;20174;-74
2022/10/21 04:30:38;;;;;;;0.00;0.00;;;;;;;13.49;100.00;99768.69;5070104;28;20224;-75
2022/10/21 04:33:04;;;;;;;0.30;0.30;;;;;;;13.53;100.00;99771.53;5070240;28;20665;-74
2022/10/21 04:35:29;;;;;;;0.40;0.40;;;;;;;13.44;100.00;99762.63;5071731;28;20174;-74
2022/10/21 04:37:54;;;;;;;0.10;0.10;;;;;;;13.50;100.00;99770.28;5073447;28;20167;-75
2022/10/21 04:40:20;;;;;;;0.00;0.00;;;;;;;13.55;100.00;99755.50;5073391;28;20205;-74
2022/10/21 04:42:49;;;;;;;0.17;0.17;;;;;;;13.46;100.00;99761.16;5073578;28;20175;-73
2022/10/21 04:45:16;;;;;;;0.00;0.00;;;;;;;13.39;100.00;99752.69;5073203;28;20265;-75
2022/10/21 04:47:41;;;;;;;0.00;0.00;;;;;;;13.37;100.00;99744.00;5073256;28;20737;-75
2022/10/21 04:50:07;;;;;;;0.20;0.20;;;;;;;13.27;100.00;99745.28;5055341;28;20171;-75
2022/10/21 04:52:32;;;;;;;0.00;0.00;;;;;;;13.40;100.00;99743.31;5073322;28;20175;-74
2022/10/21 04:54:57;;;;;;;0.00;0.00;;;;;;;13.46;100.00;99735.66;5073269;28;20171;-74
2022/10/21 04:57:23;;;;;;;0.00;0.00;;;;;;;13.31;100.00;99731.69;5072862;28;20235;-75
2022/10/21 04:59:48;;;;;;;0.30;0.30;;;;;;;13.07;100.00;99721.53;5073025;28;20273;-74
2022/10/21 05:02:13;;;;;;;0.00;0.00;;;;;;;13.06;100.00;99715.25;5073189;28;20170;-75
2022/10/21 05:04:39;;;;;;;0.07;0.07;;;;;;;12.93;100.00;99718.34;5072706;28;20310;-74
2022/10/21 05:07:04;;;;;;;0.00;0.00;;;;;;;12.84;100.00;99734.91;5072985;28;20198;-75
2022/10/21 05:09:29;;;;;;;2.03;2.03;;;;;;;12.76;100.00;99727.63;5072833;28;20181;-74
2022/10/21 05:11:54;;;;;;;0.00;0.00;;;;;;;12.52;100.00;99723.72;5072865;28;20177;-75
2022/10/21 05:14:20;;;;;;;0.00;0.00;;;;;;;12.59;100.00;99712.22;5072964;28;20261;-74
2022/10/21 05:16:45;;;;;;;0.57;0.57;;;;;;;12.75;100.00;99704.09;5072545;28;20645;-74
2022/10/21 05:19:11;;;;;;;0.00;0.00;;;;;;;12.75;100.00;99706.84;5072781;28;20181;-74
2022/10/21 05:21:36;;;;;;;0.00;0.00;;;;;;;12.73;100.00;99698.13;5072848;28;20171;-74
2022/10/21 05:24:02;;;;;;;0.87;0.87;;;;;;;12.79;100.00;99699.53;5072758;28;20691;-75
2022/10/21 05:26:29;;;;;;;0.00;0.00;;;;;;;12.82;100.00;99698.81;5072508;28;20174;-74
2022/10/21 05:28:58;;;;;;;0.00;0.00;;;;;;;12.71;100.00;99692.19;5072516;28;20746;-75
2022/10/21 05:31:24;;;;;;;0.00;0.00;;;;;;;12.76;100.00;99697.47;5072670;28;20182;-74
2022/10/21 05:33:50;;;;;;;0.93;0.93;;;;;;;12.83;100.00;99697.69;5072752;28;20523;-74
2022/10/21 05:36:15;;;;;;;1.00;1.00;;;;;;;12.86;100.00;99701.66;5072320;28;20171;-75
2022/10/21 05:38:40;;;;;;;0.27;0.20;;;;;;;12.95;100.00;99694.91;5072551;28;20194;-74
2022/10/21 05:41:06;;;;;;;2.83;0.53;;;;;;;12.99;100.00;99695.81;5072351;28;20234;-74
2022/10/21 05:43:31;;;;;;;0.83;0.83;;;;;;;13.00;100.00;99697.41;5054375;28;20175;-75
2022/10/21 05:45:57;;;;;;;0.17;0.17;;;;;;;13.00;100.00;99700.16;5071755;28;20629;-74
2022/10/21 05:48:22;;;;;;;0.10;0.10;;;;;;;12.97;100.00;99708.28;5072258;28;20231;-74
2022/10/21 05:50:52;;;;;;;0.00;0.00;;;;;;;12.98;100.00;99707.94;5072196;28;20190;-75
2022/10/21 05:53:17;;;;;;;0.00;0.00;;;;;;;12.95;100.00;99705.88;5072107;28;20171;-74
2022/10/21 05:55:42;;;;;;;0.77;0.77;;;;;;;12.98;100.00;99704.41;5071976;28;20228;-75
2022/10/21 05:58:08;;;;;;;0.10;0.10;;;;;;;12.99;100.00;99695.81;5072034;28;20673;-71
2022/10/21 06:00:33;;;;;;;0.30;0.30;;;;;;;13.00;100.00;99691.94;5071949;28;20681;-76
2022/10/21 06:02:58;;;;;;;0.10;0.10;;;;;;;13.05;100.00;99697.19;5072109;28;20229;-74
2022/10/21 06:05:24;;;;;;;0.73;0.73;;;;;;;13.14;100.00;99705.28;5071387;28;20174;-76
2022/10/21 06:07:49;;;;;;;0.53;0.53;;;;;;;13.19;100.00;99699.59;5071704;28;20257;-77
2022/10/21 06:10:15;;;;;;;0.37;0.37;;;;;;;13.16;100.00;99702.19;5071803;28;20265;-76
2022/10/21 06:12:41;;;;;;;1.77;1.67;;;;;;;13.18;100.00;99705.41;5071782;28;20261;-76
2022/10/21 06:15:07;;;;;;;9.73;1.90;;;;;;;13.28;100.00;99702.97;5071797;28;20642;-75
2022/10/21 06:17:33;;;;;;;0.87;0.87;;;;;;;13.28;100.00;99692.00;5071370;28;20181;-75
2022/10/21 06:19:59;;;;;;;0.00;0.00;;;;;;;13.27;100.00;99692.34;5071172;28;20557;-75
2022/10/21 06:22:24;;;;;;;1.90;1.40;;;;;;;13.30;100.00;99705.38;5071740;28;20170;-76
2022/10/21 06:24:49;;;;;;;4.83;2.53;;;;;;;13.39;100.00;99708.78;5071600;28;20638;-75
2022/10/21 06:27:15;;;;;;;3.73;2.53;;;;;;;13.40;100.00;99711.19;5071352;28;20236;-75
2022/10/21 06:29:40;;;;;;;1.67;1.57;;;;;;;13.44;100.00;99710.47;5053960;28;20175;-74
2022/10/21 06:32:05;;;;;;;3.70;2.37;;;;;;;13.48;100.00;99714.94;5071546;28;20166;-74
2022/10/21 06:34:31;;;;;;;0.00;0.00;;;;;;;13.46;100.00;99709.00;5071448;28;20175;-74
2022/10/21 06:36:56;;;;;;;0.03;0.03;;;;;;;13.49;100.00;99716.53;5053447;28;20185;-76
2022/10/21 06:39:21;;;;;;;1.20;1.20;;;;;;;13.50;100.00;99726.38;5071739;28;20178;-75
2022/10/21 06:41:47;;;;;;;0.53;0.53;;;;;;;13.52;100.00;99728.75;5071459;28;20190;-75
2022/10/21 06:44:12;;;;;;;0.40;0.40;;;;;;;13.52;100.00;99728.75;5053899;28;20258;-76
2022/10/21 06:46:37;;;;;;;0.33;0.33;;;;;;;13.51;100.00;99727.16;5073210;28;20258;-75
2022/10/21 06:49:02;;;;;;;0.97;0.93;;;;;;;13.46;100.00;99727.41;5080752;28;20226;-75
2022/10/21 06:51:28;;;;;;;2.97;2.80;;;;;;;13.52;100.00;99739.72;5074130;28;20166;-77
2022/10/21 06:53:56;;;;;;;2.53;2.43;;;;;;;13.50;100.00;99742.84;5072926;28;20170;-75
2022/10/21 06:56:22;;;;;;;0.07;0.07;;;;;;;13.45;100.00;99747.75;5072311;28;20178;-76
2022/10/21 06:58:49;;;;;;;0.90;0.90;;;;;;;13.46;100.00;99741.13;5070987;28;20642;-76
2022/10/21 07:01:22;;;;;;;0.20;0.20;;;;;;;13.45;100.00;99739.50;5071579;28;20198;-75
2022/10/21 07:03:47;;;;;;;0.40;0.40;;;;;;;13.45;100.00;99758.72;5071039;28;20280;-78
2022/10/21 07:06:13;;;;;;;2.50;2.30;;;;;;;13.46;100.00;99761.16;5070921;28;20211;-72
2022/10/21 07:08:38;;;;;;;0.93;0.93;;;;;;;13.42;100.00;99757.47;5070921;28;20564;-71
2022/10/21 07:11:04;;;;;;;1.57;1.47;;;;;;;13.41;100.00;99758.63;5070989;28;20708;-72
2022/10/21 07:13:30;;;;;;;0.37;0.37;;;;;;;13.46;100.00;99757.59;5070530;28;20174;-72
2022/10/21 07:16:04;;;;;;;1.57;1.47;;;;;;;13.51;100.00;99758.16;5070177;28;20248;-72
2022/10/21 07:18:30;;;;;;;0.10;0.10;;;;;;;13.43;100.00;99756.31;5068846;28;20253;-73
2022/10/21 07:21:05;;;;;;;0.00;0.00;;;;;;;13.48;100.00;99753.34;5052486;28;20310;-73
2022/10/21 07:23:31;;;;;;;1.40;1.33;;;;;;;13.50;100.00;99759.28;5068643;28;20177;-73
2022/10/21 07:25:56;;;;;;;0.00;0.00;;;;;;;13.58;100.00;99761.09;5070645;28;20167;-73
2022/10/21 07:28:21;;;;;;;2.23;1.50;;;;;;;13.69;100.00;99769.63;5070628;28;20174;-73
2022/10/21 07:30:47;;;;;;;0.73;0.50;;;;;;;13.75;100.00;99771.00;5052884;28;20262;-73
2022/10/21 07:33:12;;;;;;;1.67;1.57;;;;;;;13.82;100.00;99762.94;5070629;28;20175;-70
2022/10/21 07:35:38;;;;;;;1.10;1.07;;;;;;;13.94;100.00;99762.91;5052586;28;20171;-72
2022/10/21 07:38:03;;;;;;;0.00;0.00;;;;;;;14.04;100.00;99760.81;5070481;28;20217;-71
2022/10/21 07:40:29;;;;;;;0.43;0.43;;;;;;;14.12;100.00;99757.88;5070547;28;20269;-71
2022/10/21 07:42:55;;;;;;;0.00;0.00;;;;;;;14.23;100.00;99764.47;5070559;28;20170;-71
2022/10/21 07:45:21;;;;;;;1.20;1.20;;;;;;;14.35;100.00;99769.09;5070369;28;20169;-71
2022/10/21 07:47:46;;;;;;;0.27;0.27;;;;;;;14.45;100.00;99770.53;5070631;28;20175;-71
2022/10/21 07:50:12;;;;;;;2.60;2.07;;;;;;;14.55;100.00;99768.06;5070239;28;20638;-74
2022/10/21 07:52:44;;;;;;;1.50;1.40;;;;;;;14.65;100.00;99763.19;5070400;28;20214;-72
2022/10/21 07:55:13;;;;;;;0.33;0.33;;;;;;;14.72;100.00;99764.16;5070447;28;20174;-74
2022/10/21 07:57:39;;;;;;;0.97;0.93;;;;;;;14.80;100.00;99756.88;5069895;28;20179;-73
2022/10/21 08:00:05;;;;;;;1.90;1.80;;;;;;;14.86;100.00;99760.94;5070261;28;20206;-72
2022/10/21 08:02:31;;;;;;;0.00;0.00;;;;;;;14.94;100.00;99759.19;5070268;28;20221;-72
2022/10/21 08:04:56;;;;;;;2.40;2.20;;;;;;;15.03;100.00;99779.03;5070149;28;20650;-74
2022/10/21 08:07:22;;;;;;;0.00;0.00;;;;;;;14.99;100.00;99756.16;5052244;28;20188;-72
2022/10/21 08:09:47;;;;;;;0.60;0.60;;;;;;;15.02;100.00;99769.97;5072270;28;20247;-72
2022/10/21 08:12:12;;;;;;;1.70;1.60;;;;;;;15.04;100.00;99764.09;5074128;28;20178;-72
2022/10/21 08:14:38;;;;;;;0.07;0.07;;;;;;;15.12;100.00;99763.94;5073913;28;20166;-73
2022/10/21 08:17:04;;;;;;;0.00;0.00;;;;;;;15.15;100.00;99759.66;5055722;28;20174;-73
2022/10/21 08:19:29;;;;;;;0.00;0.00;;;;;;;15.21;100.00;99763.75;5073767;28;20190;-73
2022/10/21 08:21:56;;;;;;;1.43;1.33;;;;;;;15.29;100.00;99770.97;5073823;28;20178;-73
2022/10/21 08:24:22;;;;;;;0.33;0.33;;;;;;;15.35;100.00;99769.56;5073761;28;20167;-72
2022/10/21 08:26:48;;;;;;;1.27;1.17;;;;;;;15.39;100.00;99770.44;5073969;28;20185;-72
2022/10/21 08:29:13;;;;;;;0.00;0.00;;;;;;;15.46;100.00;99773.31;5073916;28;20619;-73
2022/10/21 08:31:39;;;;;;;1.97;1.83;;;;;;;15.45;100.00;99757.97;5073724;28;20257;-73
2022/10/21 08:34:04;;;;;;;1.93;1.73;;;;;;;15.45;100.00;99759.91;5073602;28;20206;-73
2022/10/21 08:36:29;;;;;;;2.03;1.87;;;;;;;15.43;100.00;99765.78;5073465;28;20638;-73
2022/10/21 08:38:57;;;;;;;0.47;0.47;;;;;;;15.41;100.00;99748.84;5055376;28;20179;-72
2022/10/21 08:41:28;;;;;;;1.10;1.00;;;;;;;15.40;100.00;99752.75;5073393;28;20210;-73
2022/10/21 08:43:57;;;;;;;3.17;2.93;;;;;;;15.41;100.00;99745.28;5073553;28;20688;-74
2022/10/21 08:46:31;;;;;;;0.00;0.00;;;;;;;15.41;100.00;99740.59;5073263;28;20501;-73
2022/10/21 08:49:22;;;;;;;1.53;1.50;;;;;;;15.46;100.00;99750.50;5073443;28;20240;-73
2022/10/21 08:51:57;;;;;;;4.80;1.40;;;;;;;15.47;100.00;99743.84;5073371;28;20198;-73
2022/10/21 08:54:55;;;;;;;0.83;0.83;;;;;;;15.51;100.00;99750.25;5055285;28;20177;-74
2022/10/21 08:57:20;;;;;;;1.97;1.97;;;;;;;15.50;100.00;99754.16;5055034;28;20218;-73
2022/10/21 08:59:46;;;;;;;1.33;1.00;;;;;;;15.48;100.00;99749.00;5073260;28;20343;-72
2022/10/21 09:02:11;;;;;;;0.60;0.60;;;;;;;15.51;100.00;99747.47;5073041;28;20228;-74
2022/10/21 09:05:06;;;;;;;0.00;0.00;;;;;;;15.60;100.00;99755.53;5072913;28;20186;-73
2022/10/21 09:07:59;;;;;;;7.73;1.37;;;;;;;15.63;100.00;99763.09;5072787;28;20610;-74
2022/10/21 09:10:38;;;;;;;4.53;1.70;;;;;;;15.66;100.00;99762.38;5072922;28;20266;-74
2022/10/21 09:13:21;;;;;;;0.10;0.10;;;;;;;15.69;100.00;99762.44;5072818;28;20228;-73
2022/10/21 09:16:13;;;;;;;2.13;1.93;;;;;;;15.66;100.00;99749.41;5072613;28;20258;-74
2022/10/21 09:19:04;;;;;;;0.00;0.00;;;;;;;15.63;100.00;99741.88;5072749;28;20171;-73
2022/10/21 09:21:54;;;;;;;0.93;0.63;;;;;;;15.67;100.00;99748.25;5071717;28;20212;-73
2022/10/21 09:24:41;;;;;;;1.10;1.00;;;;;;;15.65;100.00;99747.00;5072507;28;20178;-73
2022/10/21 09:27:09;;;;;;;1.40;1.30;;;;;;;15.61;100.00;99741.41;5072312;28;20657;-73
2022/10/21 09:29:48;;;;;;;2.43;2.20;;;;;;;15.68;100.00;99746.28;5071300;28;20186;-73
2022/10/21 09:32:21;;;;;;;0.00;0.00;;;;;;;15.70;100.00;99739.25;5072250;28;20552;-73
2022/10/21 09:35:01;;;;;;;0.00;0.00;;;;;;;15.81;100.00;99738.66;5072791;28;20810;-73
2022/10/21 09:37:38;;;;;;;1.47;1.37;;;;;;;15.91;100.00;99736.13;5071975;28;20206;-72
2022/10/21 09:40:23;;;;;;;2.00;1.83;;;;;;;16.01;99.67;99735.50;5071885;28;20198;-72
2022/10/21 09:42:51;;;;;;;0.30;0.30;;;;;;;16.13;98.86;99739.28;5071931;28;20227;-73
2022/10/21 09:45:26;;;;;;;2.83;0.43;;;;;;;16.25;98.30;99731.63;5071522;28;20177;-73
2022/10/21 09:48:02;;;;;;;1.13;1.13;;;;;;;16.35;98.02;99744.81;5053854;28;20174;-73
2022/10/21 09:50:28;;;;;;;0.47;0.47;;;;;;;16.39;97.29;99738.56;5071763;28;20578;-74
2022/10/21 09:53:29;;;;;;;1.23;0.43;;;;;;;16.44;96.74;99732.72;5071820;28;20214;-73
2022/10/21 09:56:01;;;;;;;0.20;0.20;;;;;;;16.52;96.59;99743.53;4982048;28;20189;-74
2022/10/21 09:58:48;;;;;;;1.37;0.30;;;;;;;16.43;95.83;99734.69;5053476;28;20243;-73
2022/10/21 10:01:21;;;;;;;0.00;0.00;;;;;;;16.45;95.98;99743.38;5071038;28;20226;-73
2022/10/21 10:03:49;;;;;;;1.20;1.00;;;;;;;16.48;96.31;99753.66;5071240;28;20181;-73
2022/10/21 10:06:32;;;;;;;0.67;0.67;;;;;;;16.49;95.57;99754.47;5070884;28;20209;-74
2022/10/21 10:09:13;;;;;;;0.60;0.60;;;;;;;16.40;95.84;99757.47;5071486;28;20185;-73
2022/10/21 10:12:12;;;;;;;5.83;2.93;;;;;;;16.29;95.80;99759.25;5068876;28;20201;-73
2022/10/21 10:14:40;;;;;;;0.37;0.37;;;;;;;16.22;96.50;99759.13;5048665;28;20193;-75
2022/10/21 10:17:32;;;;;;;2.60;2.00;;;;;;;16.15;96.63;99748.75;5070947;28;20162;-74
2022/10/21 10:20:04;;;;;;;18.03;2.30;;;;;;;16.03;96.67;99748.91;5068585;28;20205;-73
2022/10/21 10:22:40;;;;;;;4.80;0.97;;;;;;;16.00;97.08;99746.91;5070132;28;20611;-73
2022/10/21 10:25:32;;;;;;;2.73;0.80;;;;;;;15.89;97.34;99737.63;5070870;28;20170;-74
2022/10/21 10:28:19;;;;;;;0.63;0.63;;;;;;;15.83;98.28;99745.41;5071409;28;20599;-73
2022/10/21 10:30:52;;;;;;;2.10;1.27;;;;;;;15.85;98.90;99743.06;5051552;28;20589;-71
2022/10/21 10:33:21;;;;;;;0.83;0.83;;;;;;;15.79;98.69;99744.53;5051609;28;20218;-72
2022/10/21 10:35:50;;;;;;;0.00;0.00;;;;;;;15.72;98.72;99739.66;5051126;28;20171;-71
2022/10/21 10:38:24;;;;;;;1.13;1.13;;;;;;;15.66;99.02;99746.66;5051463;28;20406;-70
2022/10/21 10:40:50;;;;;;;3.50;1.57;;;;;;;15.61;99.02;99751.63;5051026;28;20248;-72
2022/10/21 10:43:30;;;;;;;3.23;3.03;;;;;;;15.55;99.70;99747.56;5050984;28;20172;-71
2022/10/21 10:46:05;;;;;;;1.80;1.70;;;;;;;15.53;99.71;99738.84;5063043;28;20197;-70
2022/10/21 10:48:38;;;;;;;0.40;0.40;;;;;;;15.49;99.99;99736.03;5070655;28;20552;-71
2022/10/21 10:51:23;;;;;;;3.37;1.83;;;;;;;15.51;100.00;99743.94;5053627;28;20217;-71
2022/10/21 10:54:25;;;;;;;1.40;1.30;;;;;;;15.54;100.00;99751.47;5070862;28;20224;-71
2022/10/21 10:56:52;;;;;;;3.73;2.20;;;;;;;15.53;99.86;99758.13;5056885;28;20198;-71
2022/10/21 10:59:33;;;;;;;2.70;2.13;;;;;;;15.46;100.00;99748.53;5071008;28;20209;-71
2022/10/21 11:02:21;;;;;;;1.97;1.87;;;;;;;15.43;100.00;99754.78;5070840;28;20177;-71
2022/10/21 11:05:07;;;;;;;10.70;2.37;;;;;;;15.37;100.00;99752.69;5025923;28;20260;-71
2022/10/21 11:07:38;;;;;;;0.53;0.53;;;;;;;15.31;100.00;99743.91;5070445;28;20189;-71
2022/10/21 11:10:12;;;;;;;10.93;3.07;;;;;;;15.36;100.00;99753.84;5052730;28;20177;-71
2022/10/21 11:12:38;;;;;;;0.70;0.50;;;;;;;15.35;100.00;99755.00;5070720;28;20228;-72
2022/10/21 11:15:12;;;;;;;1.63;1.53;;;;;;;15.37;100.00;99755.44;5070654;28;20176;-71
2022/10/21 11:17:42;;;;;;;3.17;2.97;;;;;;;15.36;100.00;99756.59;5070338;28;20178;-72
2022/10/21 11:20:26;;;;;;;1.23;1.03;;;;;;;15.35;100.00;99758.56;5070424;28;20217;-71
2022/10/21 11:23:04;;;;;;;1.27;1.27;;;;;;;15.32;100.00;99756.50;5070925;28;20170;-71
2022/10/21 11:25:41;;;;;;;0.10;0.10;;;;;;;15.31;100.00;99754.91;5070419;28;20182;-71
2022/10/21 11:28:31;;;;;;;0.00;0.00;;;;;;;15.40;100.00;99750.00;5070070;28;20591;-71
2022/10/21 11:31:12;;;;;;;0.00;0.00;;;;;;;15.48;100.00;99750.97;5070287;28;20207;-71
2022/10/21 11:33:50;;;;;;;1.20;1.20;;;;;;;15.54;100.00;99749.50;5070433;28;20171;-71
2022/10/21 11:36:33;;;;;;;4.20;1.70;;;;;;;15.55;100.00;99747.56;5069038;28;20228;-71
2022/10/21 11:39:17;;;;;;;1.40;1.30;;;;;;;15.47;100.00;99741.88;5070274;28;20180;-71